Time,TemperatureF,DewpointF,PressureIn,WindDirection,WindDirectionDegrees,WindSpeedMPH,WindSpeedGustMPH,Humidity,HourlyPrecipIn,Conditions,Clouds,dailyrainin,SolarRadiationWatts/m^2,SoftwareType,DateUTC
2013-06-02 00:01:00,92.0,50.0,-100.00,SW,214,6.0,14.0,24,0.00,,,0.00,0.000000,,2013-06-02 07:01:00,
2013-06-02 00:11:00,92.0,50.0,-100.00,SW,214,6.0,14.0,24,0.00,,,0.00,0.000000,,2013-06-02 07:11:00,
2013-06-02 00:21:00,92.0,50.0,-100.00,SW,214,6.0,14.0,24,0.00,,,0.00,0.000000,,2013-06-02 07:21:00,
2013-06-02 00:52:00,89.0,47.0,-100.00,SSW,206,6.0,11.0,24,0.00,,,0.00,0.000000,,2013-06-02 07:52:00,
2013-06-02 01:01:00,89.0,47.0,-100.00,SSW,206,6.0,11.0,24,0.00,,,0.00,0.000000,,2013-06-02 08:01:00,
2013-06-02 01:11:00,89.0,47.0,-100.00,SSW,206,6.0,11.0,24,0.00,,,0.00,0.000000,,2013-06-02 08:11:00,
2013-06-02 01:21:00,89.0,47.0,-100.00,SSW,206,6.0,11.0,24,0.00,,,0.00,0.000000,,2013-06-02 08:21:00,
2013-06-02 01:52:00,88.0,44.0,-100.00,SW,221,3.0,10.0,22,0.00,,,0.00,0.000000,,2013-06-02 08:52:00,
2013-06-02 02:01:00,88.0,44.0,-100.00,SW,221,3.0,10.0,22,0.00,,,0.00,0.000000,,2013-06-02 09:01:00,
2013-06-02 02:11:00,88.0,44.0,-100.00,SW,221,3.0,10.0,22,0.00,,,0.00,0.000000,,2013-06-02 09:11:00,
2013-06-02 02:21:00,88.0,44.0,-100.00,SW,221,3.0,10.0,22,0.00,,,0.00,0.000000,,2013-06-02 09:21:00,
2013-06-02 02:53:00,87.0,46.0,-100.00,SSW,195,0.0,5.0,24,0.00,,,0.00,0.000000,,2013-06-02 09:53:00,
2013-06-02 03:02:00,87.0,46.0,-100.00,SSW,195,0.0,5.0,24,0.00,,,0.00,0.000000,,2013-06-02 10:02:00,
2013-06-02 03:12:00,87.0,46.0,-100.00,SSW,195,0.0,5.0,24,0.00,,,0.00,0.000000,,2013-06-02 10:12:00,
2013-06-02 03:22:00,87.0,46.0,-100.00,SSW,195,0.0,5.0,24,0.00,,,0.00,0.000000,,2013-06-02 10:22:00,
2013-06-02 03:52:00,83.0,52.0,-100.00,West,261,0.0,4.0,34,0.00,,,0.00,0.000000,,2013-06-02 10:52:00,
2013-06-02 04:02:00,83.0,52.0,-100.00,West,261,0.0,4.0,34,0.00,,,0.00,0.000000,,2013-06-02 11:02:00,
2013-06-02 04:12:00,83.0,52.0,-100.00,West,261,0.0,4.0,34,0.00,,,0.00,0.000000,,2013-06-02 11:12:00,
2013-06-02 04:21:00,83.0,52.0,-100.00,West,261,0.0,4.0,34,0.00,,,0.00,0.000000,,2013-06-02 11:21:00,
2013-06-02 04:52:00,81.0,51.0,-100.00,NE,37,0.0,3.0,35,0.00,,,0.00,0.000000,,2013-06-02 11:52:00,
2013-06-02 05:01:00,81.0,51.0,-100.00,NE,37,0.0,3.0,35,0.00,,,0.00,0.000000,,2013-06-02 12:01:00,
2013-06-02 05:11:00,81.0,51.0,-100.00,NE,37,0.0,3.0,35,0.00,,,0.00,0.000000,,2013-06-02 12:11:00,
2013-06-02 05:21:00,81.0,51.0,-100.00,NE,37,0.0,3.0,35,0.00,,,0.00,0.000000,,2013-06-02 12:21:00,
2013-06-02 05:52:00,78.0,50.0,-100.00,NNE,16,0.0,2.0,37,0.00,,,0.00,0.000000,,2013-06-02 12:52:00,
2013-06-02 06:01:00,78.0,50.0,-100.00,NNE,16,0.0,2.0,37,0.00,,,0.00,0.000000,,2013-06-02 13:01:00,
2013-06-02 06:11:00,78.0,50.0,-100.00,NNE,16,0.0,2.0,37,0.00,,,0.00,0.000000,,2013-06-02 13:11:00,
2013-06-02 06:21:00,78.0,50.0,-100.00,NNE,16,0.0,2.0,37,0.00,,,0.00,0.000000,,2013-06-02 13:21:00,
2013-06-02 06:52:00,81.0,51.0,-100.00,WSW,255,0.0,2.0,35,0.00,,,0.00,47.000000,,2013-06-02 13:52:00,
2013-06-02 07:01:00,81.0,51.0,-100.00,WSW,255,0.0,2.0,35,0.00,,,0.00,47.000000,,2013-06-02 14:01:00,
2013-06-02 07:11:00,81.0,51.0,-100.00,WSW,255,0.0,2.0,35,0.00,,,0.00,47.000000,,2013-06-02 14:11:00,
2013-06-02 07:21:00,81.0,51.0,-100.00,WSW,255,0.0,2.0,35,0.00,,,0.00,47.000000,,2013-06-02 14:21:00,
2013-06-02 07:52:00,87.0,50.0,-100.00,NE,54,0.0,0.0,28,0.00,,,0.00,192.000000,,2013-06-02 14:52:00,
2013-06-02 08:01:00,87.0,50.0,-100.00,NE,54,0.0,0.0,28,0.00,,,0.00,192.000000,,2013-06-02 15:01:00,
2013-06-02 08:11:00,87.0,50.0,-100.00,NE,54,0.0,0.0,28,0.00,,,0.00,192.000000,,2013-06-02 15:11:00,
2013-06-02 08:21:00,87.0,50.0,-100.00,NE,54,0.0,0.0,28,0.00,,,0.00,192.000000,,2013-06-02 15:21:00,
2013-06-02 08:53:00,92.0,45.0,-100.00,SSW,194,0.0,4.0,20,0.00,,,0.00,493.000000,,2013-06-02 15:53:00,
2013-06-02 09:03:00,92.0,45.0,-100.00,SSW,194,0.0,4.0,20,0.00,,,0.00,493.000000,,2013-06-02 16:03:00,
2013-06-02 09:13:00,92.0,45.0,-100.00,SSW,194,0.0,4.0,20,0.00,,,0.00,493.000000,,2013-06-02 16:13:00,
2013-06-02 09:23:00,92.0,45.0,-100.00,SSW,194,0.0,4.0,20,0.00,,,0.00,493.000000,,2013-06-02 16:23:00,
2013-06-02 09:52:00,96.0,39.0,-100.00,SSW,208,3.0,8.0,14,0.00,,,0.00,754.000000,,2013-06-02 16:52:00,
2013-06-02 10:52:00,99.0,43.0,-100.00,SSW,207,9.0,15.0,15,0.00,,,0.00,963.000000,,2013-06-02 17:52:00,
2013-06-02 11:01:00,99.0,43.0,-100.00,SSW,207,9.0,15.0,15,0.00,,,0.00,963.000000,,2013-06-02 18:01:00,
2013-06-02 11:11:00,99.0,43.0,-100.00,SSW,207,9.0,15.0,15,0.00,,,0.00,963.000000,,2013-06-02 18:11:00,
2013-06-02 11:21:00,99.0,43.0,-100.00,SSW,207,9.0,15.0,15,0.00,,,0.00,963.000000,,2013-06-02 18:21:00,
2013-06-02 11:52:00,102.0,42.0,-100.00,SSW,211,9.0,20.0,13,0.00,,,0.00,1117.000000,,2013-06-02 18:52:00,
2013-06-02 12:01:00,102.0,42.0,-100.00,SSW,211,9.0,20.0,13,0.00,,,0.00,1117.000000,,2013-06-02 19:01:00,
2013-06-02 12:11:00,102.0,42.0,-100.00,SSW,211,9.0,20.0,13,0.00,,,0.00,1117.000000,,2013-06-02 19:11:00,
2013-06-02 12:21:00,102.0,42.0,-100.00,SSW,211,9.0,20.0,13,0.00,,,0.00,1117.000000,,2013-06-02 19:21:00,
2013-06-02 12:52:00,105.0,40.0,-100.00,SW,215,11.0,22.0,11,0.00,,,0.00,1204.000000,,2013-06-02 19:52:00,
2013-06-02 13:02:00,105.0,40.0,-100.00,SW,215,11.0,22.0,11,0.00,,,0.00,1204.000000,,2013-06-02 20:02:00,
2013-06-02 13:11:00,105.0,40.0,-100.00,SW,215,11.0,22.0,11,0.00,,,0.00,1204.000000,,2013-06-02 20:11:00,
2013-06-02 13:21:00,105.0,40.0,-100.00,SW,215,11.0,22.0,11,0.00,,,0.00,1204.000000,,2013-06-02 20:21:00,
2013-06-02 13:52:00,106.0,41.0,-100.00,SSW,199,10.0,20.0,11,0.00,,,0.00,1218.000000,,2013-06-02 20:52:00,
2013-06-02 14:01:00,106.0,41.0,-100.00,SSW,199,10.0,20.0,11,0.00,,,0.00,1218.000000,,2013-06-02 21:01:00,
2013-06-02 14:11:00,106.0,41.0,-100.00,SSW,199,10.0,20.0,11,0.00,,,0.00,1218.000000,,2013-06-02 21:11:00,
2013-06-02 14:21:00,106.0,41.0,-100.00,SSW,199,10.0,20.0,11,0.00,,,0.00,1218.000000,,2013-06-02 21:21:00,
2013-06-02 14:53:00,106.0,38.0,-100.00,SW,216,14.0,26.0,10,0.00,,,0.00,1162.000000,,2013-06-02 21:53:00,
2013-06-02 15:03:00,106.0,38.0,-100.00,SW,216,14.0,26.0,10,0.00,,,0.00,1162.000000,,2013-06-02 22:03:00,
2013-06-02 15:12:00,106.0,38.0,-100.00,SW,216,14.0,26.0,10,0.00,,,0.00,1162.000000,,2013-06-02 22:12:00,
2013-06-02 15:22:00,106.0,38.0,-100.00,SW,216,14.0,26.0,10,0.00,,,0.00,1162.000000,,2013-06-02 22:22:00,
2013-06-02 15:52:00,107.0,39.0,-100.00,SSW,199,13.0,26.0,10,0.00,,,0.00,1034.000000,,2013-06-02 22:52:00,
2013-06-02 16:02:00,107.0,39.0,-100.00,SSW,199,13.0,26.0,10,0.00,,,0.00,1034.000000,,2013-06-02 23:02:00,
2013-06-02 16:12:00,107.0,39.0,-100.00,SSW,199,13.0,26.0,10,0.00,,,0.00,1034.000000,,2013-06-02 23:12:00,
2013-06-02 16:22:00,107.0,39.0,-100.00,SSW,199,13.0,26.0,10,0.00,,,0.00,1034.000000,,2013-06-02 23:22:00,
2013-06-02 16:52:00,107.0,41.0,-100.00,South,190,14.0,24.0,11,0.00,,,0.00,845.000000,,2013-06-02 23:52:00,
2013-06-02 17:01:00,107.0,41.0,-100.00,South,190,14.0,24.0,11,0.00,,,0.00,845.000000,,2013-06-03 00:01:00,
2013-06-02 17:11:00,107.0,41.0,-100.00,South,190,14.0,24.0,11,0.00,,,0.00,845.000000,,2013-06-03 00:11:00,
2013-06-02 17:21:00,107.0,41.0,-100.00,South,190,14.0,24.0,11,0.00,,,0.00,845.000000,,2013-06-03 00:21:00,
2013-06-02 17:52:00,104.0,37.0,-100.00,South,180,13.0,24.0,10,0.00,,,0.00,459.000000,,2013-06-03 00:52:00,
2013-06-02 18:01:00,104.0,37.0,-100.00,South,180,13.0,24.0,10,0.00,,,0.00,459.000000,,2013-06-03 01:01:00,
2013-06-02 18:11:00,104.0,37.0,-100.00,South,180,13.0,24.0,10,0.00,,,0.00,459.000000,,2013-06-03 01:11:00,
2013-06-02 18:21:00,104.0,37.0,-100.00,South,180,13.0,24.0,10,0.00,,,0.00,459.000000,,2013-06-03 01:21:00,
2013-06-02 18:52:00,103.0,33.0,-100.00,SSW,197,11.0,23.0,9,0.00,,,0.00,182.000000,,2013-06-03 01:52:00,
2013-06-02 19:02:00,103.0,33.0,-100.00,SSW,197,11.0,23.0,9,0.00,,,0.00,182.000000,,2013-06-03 02:02:00,
2013-06-02 19:12:00,103.0,33.0,-100.00,SSW,197,11.0,23.0,9,0.00,,,0.00,182.000000,,2013-06-03 02:12:00,
2013-06-02 19:22:00,103.0,33.0,-100.00,SSW,197,11.0,23.0,9,0.00,,,0.00,182.000000,,2013-06-03 02:22:00,
2013-06-02 19:52:00,97.0,34.0,-100.00,SSW,205,11.0,25.0,11,0.00,,,0.00,102.000000,,2013-06-03 02:52:00,
2013-06-02 20:02:00,97.0,34.0,-100.00,SSW,205,11.0,25.0,11,0.00,,,0.00,102.000000,,2013-06-03 03:02:00,
2013-06-02 20:12:00,97.0,34.0,-100.00,SSW,205,11.0,25.0,11,0.00,,,0.00,102.000000,,2013-06-03 03:12:00,
2013-06-02 20:22:00,97.0,34.0,-100.00,SSW,205,11.0,25.0,11,0.00,,,0.00,102.000000,,2013-06-03 03:22:00,
2013-06-02 20:53:00,95.0,34.0,-100.00,SSW,204,10.0,19.0,12,0.00,,,0.00,3.000000,,2013-06-03 03:53:00,
2013-06-02 21:03:00,95.0,34.0,-100.00,SSW,204,10.0,19.0,12,0.00,,,0.00,3.000000,,2013-06-03 04:03:00,
2013-06-02 21:12:00,95.0,34.0,-100.00,SSW,204,10.0,19.0,12,0.00,,,0.00,3.000000,,2013-06-03 04:12:00,
2013-06-02 21:23:00,95.0,34.0,-100.00,SSW,204,10.0,19.0,12,0.00,,,0.00,3.000000,,2013-06-03 04:23:00,
2013-06-02 21:53:00,93.0,35.0,-100.00,SSW,203,7.0,18.0,13,0.00,,,0.00,0.000000,,2013-06-03 04:53:00,
2013-06-02 22:02:00,93.0,35.0,-100.00,SSW,203,7.0,18.0,13,0.00,,,0.00,0.000000,,2013-06-03 05:02:00,
2013-06-02 22:12:00,93.0,35.0,-100.00,SSW,203,7.0,18.0,13,0.00,,,0.00,0.000000,,2013-06-03 05:12:00,
2013-06-02 22:22:00,93.0,35.0,-100.00,SSW,203,7.0,18.0,13,0.00,,,0.00,0.000000,,2013-06-03 05:22:00,
2013-06-02 22:52:00,87.0,44.0,-100.00,West,269,2.0,11.0,22,0.00,,,0.00,0.000000,,2013-06-03 05:52:00,
2013-06-02 23:02:00,87.0,44.0,-100.00,West,269,2.0,11.0,22,0.00,,,0.00,0.000000,,2013-06-03 06:02:00,
2013-06-02 23:12:00,87.0,44.0,-100.00,West,269,2.0,11.0,22,0.00,,,0.00,0.000000,,2013-06-03 06:12:00,
2013-06-02 23:22:00,87.0,44.0,-100.00,West,269,2.0,11.0,22,0.00,,,0.00,0.000000,,2013-06-03 06:22:00,
2013-06-02 23:52:00,86.0,44.0,-100.00,WSW,253,2.0,5.0,23,0.00,,,0.00,0.000000,,2013-06-03 06:52:00,